sensor_id;sensor_type;location;lat;lon;timestamp;temperature;humidity
65462;DHT22;53236;43.666;18.444;2023-08-20T00:01:32;15.80;99.90
65462;DHT22;53236;43.666;18.444;2023-08-20T00:03:58;15.80;99.90
65462;DHT22;53236;43.666;18.444;2023-08-20T00:06:24;15.70;99.90
65462;DHT22;53236;43.666;18.444;2023-08-20T00:08:50;15.70;99.90
65462;DHT22;53236;43.666;18.444;2023-08-20T00:11:16;15.60;99.90
65462;DHT22;53236;43.666;18.444;2023-08-20T00:13:42;15.60;99.90
65462;DHT22;53236;43.666;18.444;2023-08-20T00:16:08;15.60;99.90
65462;DHT22;53236;43.666;18.444;2023-08-20T00:18:34;15.70;99.90
65462;DHT22;53236;43.666;18.444;2023-08-20T00:21:00;15.70;99.90
65462;DHT22;53236;43.666;18.444;2023-08-20T00:23:27;15.60;99.90
65462;DHT22;53236;43.666;18.444;2023-08-20T00:25:53;15.70;99.90
65462;DHT22;53236;43.666;18.444;2023-08-20T00:28:21;15.60;99.90
65462;DHT22;53236;43.666;18.444;2023-08-20T00:30:47;15.60;99.90
65462;DHT22;53236;43.666;18.444;2023-08-20T00:33:14;15.60;99.90
65462;DHT22;53236;43.666;18.444;2023-08-20T00:35:40;15.50;99.90
65462;DHT22;53236;43.666;18.444;2023-08-20T00:38:06;15.50;99.90
65462;DHT22;53236;43.666;18.444;2023-08-20T00:40:32;15.40;99.90
65462;DHT22;53236;43.666;18.444;2023-08-20T00:42:57;15.40;99.90
65462;DHT22;53236;43.666;18.444;2023-08-20T00:45:24;15.30;99.90
65462;DHT22;53236;43.666;18.444;2023-08-20T00:47:50;15.20;99.90
65462;DHT22;53236;43.666;18.444;2023-08-20T00:50:17;15.20;99.90
65462;DHT22;53236;43.666;18.444;2023-08-20T00:52:44;15.20;99.90
65462;DHT22;53236;43.666;18.444;2023-08-20T00:55:11;15.30;99.90
65462;DHT22;53236;43.666;18.444;2023-08-20T00:57:39;15.30;99.90
65462;DHT22;53236;43.666;18.444;2023-08-20T01:00:06;15.30;99.90
65462;DHT22;53236;43.666;18.444;2023-08-20T01:02:39;15.30;99.90
65462;DHT22;53236;43.666;18.444;2023-08-20T01:05:08;15.30;99.90
65462;DHT22;53236;43.666;18.444;2023-08-20T01:07:48;15.30;99.90
65462;DHT22;53236;43.666;18.444;2023-08-20T01:12:53;15.10;99.90
65462;DHT22;53236;43.666;18.444;2023-08-20T01:15:19;14.90;99.90
65462;DHT22;53236;43.666;18.444;2023-08-20T01:17:45;14.80;99.90
65462;DHT22;53236;43.666;18.444;2023-08-20T01:20:12;14.70;99.90
65462;DHT22;53236;43.666;18.444;2023-08-20T01:25:59;14.70;99.90
65462;DHT22;53236;43.666;18.444;2023-08-20T01:28:31;14.80;99.90
65462;DHT22;53236;43.666;18.444;2023-08-20T01:30:59;14.80;99.90
65462;DHT22;53236;43.666;18.444;2023-08-20T01:33:25;14.70;99.90
65462;DHT22;53236;43.666;18.444;2023-08-20T01:35:54;14.70;99.90
65462;DHT22;53236;43.666;18.444;2023-08-20T01:38:21;14.70;99.90
65462;DHT22;53236;43.666;18.444;2023-08-20T01:40:47;14.70;99.90
65462;DHT22;53236;43.666;18.444;2023-08-20T01:43:13;14.70;99.90
65462;DHT22;53236;43.666;18.444;2023-08-20T01:45:39;14.80;99.90
65462;DHT22;53236;43.666;18.444;2023-08-20T01:48:05;14.80;99.90
65462;DHT22;53236;43.666;18.444;2023-08-20T01:50:32;14.80;99.90
65462;DHT22;53236;43.666;18.444;2023-08-20T01:52:58;14.80;99.90
65462;DHT22;53236;43.666;18.444;2023-08-20T01:55:24;14.70;99.90
65462;DHT22;53236;43.666;18.444;2023-08-20T01:57:49;14.70;99.90
65462;DHT22;53236;43.666;18.444;2023-08-20T02:00:15;14.70;99.90
65462;DHT22;53236;43.666;18.444;2023-08-20T02:02:41;14.60;99.90
65462;DHT22;53236;43.666;18.444;2023-08-20T02:05:07;14.60;99.90
65462;DHT22;53236;43.666;18.444;2023-08-20T02:07:33;14.50;99.90
65462;DHT22;53236;43.666;18.444;2023-08-20T02:09:59;14.50;99.90
65462;DHT22;53236;43.666;18.444;2023-08-20T02:12:25;14.50;99.90
65462;DHT22;53236;43.666;18.444;2023-08-20T02:14:52;14.50;99.90
65462;DHT22;53236;43.666;18.444;2023-08-20T02:17:18;14.50;99.90
65462;DHT22;53236;43.666;18.444;2023-08-20T02:19:44;14.50;99.90
65462;DHT22;53236;43.666;18.444;2023-08-20T02:22:09;14.60;99.90
65462;DHT22;53236;43.666;18.444;2023-08-20T02:24:35;14.50;99.90
65462;DHT22;53236;43.666;18.444;2023-08-20T02:27:01;14.60;99.90
65462;DHT22;53236;43.666;18.444;2023-08-20T02:29:27;14.70;99.90
65462;DHT22;53236;43.666;18.444;2023-08-20T02:31:52;14.70;99.90
65462;DHT22;53236;43.666;18.444;2023-08-20T02:34:18;14.80;99.90
65462;DHT22;53236;43.666;18.444;2023-08-20T02:36:44;14.90;99.90
65462;DHT22;53236;43.666;18.444;2023-08-20T02:39:09;14.90;99.90
65462;DHT22;53236;43.666;18.444;2023-08-20T02:41:35;15.00;99.90
65462;DHT22;53236;43.666;18.444;2023-08-20T02:44:04;15.00;99.90
65462;DHT22;53236;43.666;18.444;2023-08-20T02:46:30;15.00;99.90
65462;DHT22;53236;43.666;18.444;2023-08-20T02:48:55;15.00;99.90
65462;DHT22;53236;43.666;18.444;2023-08-20T02:51:21;15.00;99.90
65462;DHT22;53236;43.666;18.444;2023-08-20T02:53:48;15.00;99.90
65462;DHT22;53236;43.666;18.444;2023-08-20T02:56:14;15.00;99.90
65462;DHT22;53236;43.666;18.444;2023-08-20T02:58:39;15.00;99.90
65462;DHT22;53236;43.666;18.444;2023-08-20T03:01:05;15.00;99.90
65462;DHT22;53236;43.666;18.444;2023-08-20T03:03:31;15.10;99.90
65462;DHT22;53236;43.666;18.444;2023-08-20T03:05:57;15.10;99.90
65462;DHT22;53236;43.666;18.444;2023-08-20T03:08:23;15.00;99.90
65462;DHT22;53236;43.666;18.444;2023-08-20T03:10:49;15.00;99.90
65462;DHT22;53236;43.666;18.444;2023-08-20T03:13:14;14.90;99.90
65462;DHT22;53236;43.666;18.444;2023-08-20T03:15:40;14.80;99.90
65462;DHT22;53236;43.666;18.444;2023-08-20T03:18:06;14.90;99.90
65462;DHT22;53236;43.666;18.444;2023-08-20T03:20:32;14.90;99.90
65462;DHT22;53236;43.666;18.444;2023-08-20T03:22:58;14.90;99.90
65462;DHT22;53236;43.666;18.444;2023-08-20T03:25:23;14.90;99.90
65462;DHT22;53236;43.666;18.444;2023-08-20T03:27:51;14.80;99.90
65462;DHT22;53236;43.666;18.444;2023-08-20T03:30:17;14.70;99.90
65462;DHT22;53236;43.666;18.444;2023-08-20T03:32:43;14.70;99.90
65462;DHT22;53236;43.666;18.444;2023-08-20T03:35:09;14.60;99.90
65462;DHT22;53236;43.666;18.444;2023-08-20T03:37:35;14.70;99.90
65462;DHT22;53236;43.666;18.444;2023-08-20T03:40:02;14.70;99.90
65462;DHT22;53236;43.666;18.444;2023-08-20T03:42:30;14.70;99.90
65462;DHT22;53236;43.666;18.444;2023-08-20T03:44:56;14.80;99.90
65462;DHT22;53236;43.666;18.444;2023-08-20T03:47:22;14.80;99.90
65462;DHT22;53236;43.666;18.444;2023-08-20T03:49:48;14.80;99.90
65462;DHT22;53236;43.666;18.444;2023-08-20T03:52:14;14.80;99.90
65462;DHT22;53236;43.666;18.444;2023-08-20T03:54:40;14.80;99.90
65462;DHT22;53236;43.666;18.444;2023-08-20T03:57:05;14.80;99.90
65462;DHT22;53236;43.666;18.444;2023-08-20T03:59:31;14.90;99.90
65462;DHT22;53236;43.666;18.444;2023-08-20T04:01:57;14.90;99.90
65462;DHT22;53236;43.666;18.444;2023-08-20T04:04:23;14.90;99.90
65462;DHT22;53236;43.666;18.444;2023-08-20T04:06:50;14.90;99.90
65462;DHT22;53236;43.666;18.444;2023-08-20T04:09:15;14.80;99.90
65462;DHT22;53236;43.666;18.444;2023-08-20T04:11:42;14.70;99.90
65462;DHT22;53236;43.666;18.444;2023-08-20T04:14:08;14.60;99.90
65462;DHT22;53236;43.666;18.444;2023-08-20T04:16:34;14.70;99.90
65462;DHT22;53236;43.666;18.444;2023-08-20T04:18:59;14.60;99.90
65462;DHT22;53236;43.666;18.444;2023-08-20T04:21:25;14.60;99.90
65462;DHT22;53236;43.666;18.444;2023-08-20T04:23:51;14.60;99.90
65462;DHT22;53236;43.666;18.444;2023-08-20T04:26:17;14.40;99.90
65462;DHT22;53236;43.666;18.444;2023-08-20T04:28:43;14.50;99.90
65462;DHT22;53236;43.666;18.444;2023-08-20T04:31:09;14.50;99.90
65462;DHT22;53236;43.666;18.444;2023-08-20T04:33:35;14.50;99.90
65462;DHT22;53236;43.666;18.444;2023-08-20T04:36:00;14.50;99.90
65462;DHT22;53236;43.666;18.444;2023-08-20T04:38:26;14.60;99.90
65462;DHT22;53236;43.666;18.444;2023-08-20T04:40:52;14.60;99.90
65462;DHT22;53236;43.666;18.444;2023-08-20T04:43:17;14.60;99.90
65462;DHT22;53236;43.666;18.444;2023-08-20T04:45:43;14.70;99.90
65462;DHT22;53236;43.666;18.444;2023-08-20T04:48:09;14.80;99.90
65462;DHT22;53236;43.666;18.444;2023-08-20T04:50:35;14.80;99.90
65462;DHT22;53236;43.666;18.444;2023-08-20T04:53:01;14.90;99.90
65462;DHT22;53236;43.666;18.444;2023-08-20T04:55:27;14.90;99.90
65462;DHT22;53236;43.666;18.444;2023-08-20T04:57:53;14.80;99.90
65462;DHT22;53236;43.666;18.444;2023-08-20T05:00:19;14.90;99.90
65462;DHT22;53236;43.666;18.444;2023-08-20T05:02:45;15.00;99.90
65462;DHT22;53236;43.666;18.444;2023-08-20T05:05:11;15.10;99.90
65462;DHT22;53236;43.666;18.444;2023-08-20T05:07:37;15.10;99.90
65462;DHT22;53236;43.666;18.444;2023-08-20T05:10:02;15.30;99.90
65462;DHT22;53236;43.666;18.444;2023-08-20T05:12:30;15.30;99.90
65462;DHT22;53236;43.666;18.444;2023-08-20T05:14:56;15.40;99.90
65462;DHT22;53236;43.666;18.444;2023-08-20T05:17:21;15.40;99.90
65462;DHT22;53236;43.666;18.444;2023-08-20T05:19:47;15.40;99.90
65462;DHT22;53236;43.666;18.444;2023-08-20T05:22:13;15.50;99.90
65462;DHT22;53236;43.666;18.444;2023-08-20T05:24:39;15.60;99.90
65462;DHT22;53236;43.666;18.444;2023-08-20T05:27:08;15.70;99.90
65462;DHT22;53236;43.666;18.444;2023-08-20T05:29:36;15.90;99.90
65462;DHT22;53236;43.666;18.444;2023-08-20T05:32:01;16.00;99.90
65462;DHT22;53236;43.666;18.444;2023-08-20T05:34:27;16.20;99.90
65462;DHT22;53236;43.666;18.444;2023-08-20T05:36:53;16.40;99.90
65462;DHT22;53236;43.666;18.444;2023-08-20T05:39:19;16.50;99.90
65462;DHT22;53236;43.666;18.444;2023-08-20T05:41:44;16.50;99.90
65462;DHT22;53236;43.666;18.444;2023-08-20T05:44:10;16.60;99.90
65462;DHT22;53236;43.666;18.444;2023-08-20T05:46:36;16.70;99.90
65462;DHT22;53236;43.666;18.444;2023-08-20T05:49:02;16.70;99.90
65462;DHT22;53236;43.666;18.444;2023-08-20T05:51:28;16.70;99.90
65462;DHT22;53236;43.666;18.444;2023-08-20T05:53:53;16.70;99.90
65462;DHT22;53236;43.666;18.444;2023-08-20T05:56:19;16.60;99.90
65462;DHT22;53236;43.666;18.444;2023-08-20T05:58:45;16.60;99.90
65462;DHT22;53236;43.666;18.444;2023-08-20T06:01:11;16.60;99.90
65462;DHT22;53236;43.666;18.444;2023-08-20T06:03:36;16.70;99.90
65462;DHT22;53236;43.666;18.444;2023-08-20T06:06:02;16.90;99.90
65462;DHT22;53236;43.666;18.444;2023-08-20T06:08:28;17.10;99.90
65462;DHT22;53236;43.666;18.444;2023-08-20T06:10:54;17.70;99.90
65462;DHT22;53236;43.666;18.444;2023-08-20T06:13:20;18.10;99.90
65462;DHT22;53236;43.666;18.444;2023-08-20T06:15:45;18.70;99.90
65462;DHT22;53236;43.666;18.444;2023-08-20T06:18:11;19.10;99.90
65462;DHT22;53236;43.666;18.444;2023-08-20T06:20:37;19.80;99.90
65462;DHT22;53236;43.666;18.444;2023-08-20T06:23:03;20.10;99.90
65462;DHT22;53236;43.666;18.444;2023-08-20T06:25:28;20.90;99.90
65462;DHT22;53236;43.666;18.444;2023-08-20T06:27:54;21.50;99.90
65462;DHT22;53236;43.666;18.444;2023-08-20T06:30:20;21.70;99.90
65462;DHT22;53236;43.666;18.444;2023-08-20T06:32:46;22.10;99.90
65462;DHT22;53236;43.666;18.444;2023-08-20T06:35:11;22.70;99.40
65462;DHT22;53236;43.666;18.444;2023-08-20T06:37:38;22.70;95.80
65462;DHT22;53236;43.666;18.444;2023-08-20T06:40:06;23.10;93.60
65462;DHT22;53236;43.666;18.444;2023-08-20T06:42:32;23.60;93.50
65462;DHT22;53236;43.666;18.444;2023-08-20T06:44:58;23.70;91.20
65462;DHT22;53236;43.666;18.444;2023-08-20T06:47:24;23.40;91.30
65462;DHT22;53236;43.666;18.444;2023-08-20T06:49:50;23.30;92.20
65462;DHT22;53236;43.666;18.444;2023-08-20T06:52:16;23.60;93.30
65462;DHT22;53236;43.666;18.444;2023-08-20T06:54:41;23.30;92.20
65462;DHT22;53236;43.666;18.444;2023-08-20T06:57:07;23.30;92.50
65462;DHT22;53236;43.666;18.444;2023-08-20T06:59:33;23.30;93.70
65462;DHT22;53236;43.666;18.444;2023-08-20T07:01:59;23.10;96.80
65462;DHT22;53236;43.666;18.444;2023-08-20T07:04:24;23.80;94.40
65462;DHT22;53236;43.666;18.444;2023-08-20T07:06:53;24.30;88.00
65462;DHT22;53236;43.666;18.444;2023-08-20T07:09:19;25.10;85.70
65462;DHT22;53236;43.666;18.444;2023-08-20T07:11:44;25.30;81.60
65462;DHT22;53236;43.666;18.444;2023-08-20T07:14:10;26.70;77.00
65462;DHT22;53236;43.666;18.444;2023-08-20T07:16:36;28.40;77.10
65462;DHT22;53236;43.666;18.444;2023-08-20T07:19:01;30.30;69.10
65462;DHT22;53236;43.666;18.444;2023-08-20T07:21:27;32.80;62.80
65462;DHT22;53236;43.666;18.444;2023-08-20T07:23:53;34.00;58.80
65462;DHT22;53236;43.666;18.444;2023-08-20T07:26:19;35.70;55.70
65462;DHT22;53236;43.666;18.444;2023-08-20T07:28:44;36.30;53.30
65462;DHT22;53236;43.666;18.444;2023-08-20T07:31:23;37.40;50.40
65462;DHT22;53236;43.666;18.444;2023-08-20T07:33:50;38.10;50.50
65462;DHT22;53236;43.666;18.444;2023-08-20T07:36:16;39.20;49.20
65462;DHT22;53236;43.666;18.444;2023-08-20T07:38:43;40.20;47.60
65462;DHT22;53236;43.666;18.444;2023-08-20T07:41:10;40.80;45.70
65462;DHT22;53236;43.666;18.444;2023-08-20T07:43:38;41.10;45.30
65462;DHT22;53236;43.666;18.444;2023-08-20T07:46:04;42.10;45.50
65462;DHT22;53236;43.666;18.444;2023-08-20T07:48:30;42.70;43.50
65462;DHT22;53236;43.666;18.444;2023-08-20T07:50:56;43.70;43.00
65462;DHT22;53236;43.666;18.444;2023-08-20T07:53:22;42.40;42.80
65462;DHT22;53236;43.666;18.444;2023-08-20T07:55:47;42.10;44.80
65462;DHT22;53236;43.666;18.444;2023-08-20T07:58:13;43.50;43.50
65462;DHT22;53236;43.666;18.444;2023-08-20T08:00:39;43.80;42.60
65462;DHT22;53236;43.666;18.444;2023-08-20T08:03:05;44.60;42.80
65462;DHT22;53236;43.666;18.444;2023-08-20T08:05:30;45.20;41.60
65462;DHT22;53236;43.666;18.444;2023-08-20T08:07:56;45.20;41.40
65462;DHT22;53236;43.666;18.444;2023-08-20T08:10:22;45.00;40.70
65462;DHT22;53236;43.666;18.444;2023-08-20T08:12:48;43.50;42.00
65462;DHT22;53236;43.666;18.444;2023-08-20T08:15:14;43.80;42.40
65462;DHT22;53236;43.666;18.444;2023-08-20T08:17:39;42.20;43.70
65462;DHT22;53236;43.666;18.444;2023-08-20T08:20:06;42.10;43.90
65462;DHT22;53236;43.666;18.444;2023-08-20T08:22:32;41.80;44.80
65462;DHT22;53236;43.666;18.444;2023-08-20T08:24:57;40.70;45.60
65462;DHT22;53236;43.666;18.444;2023-08-20T08:27:23;39.20;47.50
65462;DHT22;53236;43.666;18.444;2023-08-20T08:29:50;39.20;48.20
65462;DHT22;53236;43.666;18.444;2023-08-20T08:32:16;40.00;47.40
65462;DHT22;53236;43.666;18.444;2023-08-20T08:34:42;39.60;47.00
65462;DHT22;53236;43.666;18.444;2023-08-20T08:37:08;38.50;47.40
65462;DHT22;53236;43.666;18.444;2023-08-20T08:39:33;38.10;48.10
65462;DHT22;53236;43.666;18.444;2023-08-20T08:42:04;37.30;49.90
65462;DHT22;53236;43.666;18.444;2023-08-20T08:44:33;37.30;49.60
65462;DHT22;53236;43.666;18.444;2023-08-20T08:47:00;37.00;49.80
65462;DHT22;53236;43.666;18.444;2023-08-20T08:49:26;36.90;50.80
65462;DHT22;53236;43.666;18.444;2023-08-20T08:51:54;37.20;50.90
65462;DHT22;53236;43.666;18.444;2023-08-20T08:54:22;37.30;50.50
65462;DHT22;53236;43.666;18.444;2023-08-20T08:56:48;37.60;50.10
65462;DHT22;53236;43.666;18.444;2023-08-20T08:59:14;36.90;50.80
65462;DHT22;53236;43.666;18.444;2023-08-20T09:01:41;35.30;53.30
65462;DHT22;53236;43.666;18.444;2023-08-20T09:04:07;34.50;53.80
65462;DHT22;53236;43.666;18.444;2023-08-20T09:09:11;33.50;56.20
65462;DHT22;53236;43.666;18.444;2023-08-20T09:11:37;32.40;58.40
65462;DHT22;53236;43.666;18.444;2023-08-20T09:14:03;31.90;59.10
65462;DHT22;53236;43.666;18.444;2023-08-20T09:16:31;30.70;61.00
65462;DHT22;53236;43.666;18.444;2023-08-20T09:19:01;30.20;63.00
65462;DHT22;53236;43.666;18.444;2023-08-20T09:21:28;29.60;65.10
65462;DHT22;53236;43.666;18.444;2023-08-20T09:23:56;29.40;65.40
65462;DHT22;53236;43.666;18.444;2023-08-20T09:26:22;29.20;67.70
65462;DHT22;53236;43.666;18.444;2023-08-20T09:28:48;29.00;67.10
65462;DHT22;53236;43.666;18.444;2023-08-20T09:31:14;28.80;68.00
65462;DHT22;53236;43.666;18.444;2023-08-20T09:33:53;28.70;68.50
65462;DHT22;53236;43.666;18.444;2023-08-20T09:36:33;28.40;68.50
65462;DHT22;53236;43.666;18.444;2023-08-20T09:38:59;28.10;70.00
65462;DHT22;53236;43.666;18.444;2023-08-20T09:41:25;28.00;71.00
65462;DHT22;53236;43.666;18.444;2023-08-20T09:43:56;28.30;70.40
65462;DHT22;53236;43.666;18.444;2023-08-20T09:46:24;28.20;70.10
65462;DHT22;53236;43.666;18.444;2023-08-20T09:48:51;28.00;71.30
65462;DHT22;53236;43.666;18.444;2023-08-20T09:51:26;27.90;71.30
65462;DHT22;53236;43.666;18.444;2023-08-20T09:56:46;27.70;72.80
65462;DHT22;53236;43.666;18.444;2023-08-20T09:59:17;27.60;72.70
65462;DHT22;53236;43.666;18.444;2023-08-20T10:01:43;27.40;74.00
65462;DHT22;53236;43.666;18.444;2023-08-20T10:04:10;27.10;75.00
65462;DHT22;53236;43.666;18.444;2023-08-20T10:06:37;27.60;75.90
65462;DHT22;53236;43.666;18.444;2023-08-20T10:09:03;28.00;76.20
65462;DHT22;53236;43.666;18.444;2023-08-20T10:11:29;27.70;75.70
65462;DHT22;53236;43.666;18.444;2023-08-20T10:13:55;27.70;80.20
65462;DHT22;53236;43.666;18.444;2023-08-20T10:16:21;27.70;80.30
65462;DHT22;53236;43.666;18.444;2023-08-20T10:18:48;27.80;78.30
65462;DHT22;53236;43.666;18.444;2023-08-20T10:21:14;27.70;78.60
65462;DHT22;53236;43.666;18.444;2023-08-20T10:23:48;27.50;81.50
65462;DHT22;53236;43.666;18.444;2023-08-20T10:26:14;27.20;83.70
65462;DHT22;53236;43.666;18.444;2023-08-20T10:28:42;27.20;82.00
65462;DHT22;53236;43.666;18.444;2023-08-20T10:31:12;27.50;83.40
65462;DHT22;53236;43.666;18.444;2023-08-20T10:33:58;27.40;85.50
65462;DHT22;53236;43.666;18.444;2023-08-20T10:36:24;27.30;82.70
65462;DHT22;53236;43.666;18.444;2023-08-20T10:38:53;27.30;84.20
65462;DHT22;53236;43.666;18.444;2023-08-20T10:41:30;27.30;85.40
65462;DHT22;53236;43.666;18.444;2023-08-20T10:44:00;27.20;84.90
65462;DHT22;53236;43.666;18.444;2023-08-20T10:46:28;27.00;85.90
65462;DHT22;53236;43.666;18.444;2023-08-20T10:49:02;26.80;89.20
65462;DHT22;53236;43.666;18.444;2023-08-20T10:51:36;26.90;90.20
65462;DHT22;53236;43.666;18.444;2023-08-20T10:54:05;27.10;86.90
65462;DHT22;53236;43.666;18.444;2023-08-20T10:59:17;26.90;91.70
65462;DHT22;53236;43.666;18.444;2023-08-20T11:01:45;27.40;87.80
65462;DHT22;53236;43.666;18.444;2023-08-20T11:04:12;27.50;86.50
65462;DHT22;53236;43.666;18.444;2023-08-20T11:06:38;27.60;87.20
65462;DHT22;53236;43.666;18.444;2023-08-20T11:09:05;27.90;84.10
65462;DHT22;53236;43.666;18.444;2023-08-20T11:11:33;28.00;90.10
65462;DHT22;53236;43.666;18.444;2023-08-20T11:14:07;28.20;82.20
65462;DHT22;53236;43.666;18.444;2023-08-20T11:16:36;28.40;80.50
65462;DHT22;53236;43.666;18.444;2023-08-20T11:19:03;28.30;78.30
65462;DHT22;53236;43.666;18.444;2023-08-20T11:21:34;28.30;83.60
65462;DHT22;53236;43.666;18.444;2023-08-20T11:24:01;28.40;86.50
65462;DHT22;53236;43.666;18.444;2023-08-20T11:26:27;28.50;84.70
65462;DHT22;53236;43.666;18.444;2023-08-20T11:28:52;28.50;84.30
65462;DHT22;53236;43.666;18.444;2023-08-20T11:31:19;27.70;86.70
65462;DHT22;53236;43.666;18.444;2023-08-20T11:33:45;27.80;89.50
65462;DHT22;53236;43.666;18.444;2023-08-20T11:36:11;28.00;92.50
65462;DHT22;53236;43.666;18.444;2023-08-20T11:38:37;28.20;88.90
65462;DHT22;53236;43.666;18.444;2023-08-20T11:41:03;28.60;91.50
65462;DHT22;53236;43.666;18.444;2023-08-20T11:43:29;28.50;90.20
65462;DHT22;53236;43.666;18.444;2023-08-20T11:45:55;28.50;88.90
65462;DHT22;53236;43.666;18.444;2023-08-20T11:48:21;28.60;88.90
65462;DHT22;53236;43.666;18.444;2023-08-20T11:50:48;28.50;89.00
65462;DHT22;53236;43.666;18.444;2023-08-20T11:53:14;28.50;89.40
65462;DHT22;53236;43.666;18.444;2023-08-20T11:55:41;28.40;88.30
65462;DHT22;53236;43.666;18.444;2023-08-20T11:58:13;28.20;87.10
65462;DHT22;53236;43.666;18.444;2023-08-20T12:00:40;28.20;85.20
65462;DHT22;53236;43.666;18.444;2023-08-20T12:03:07;28.10;89.40
65462;DHT22;53236;43.666;18.444;2023-08-20T12:05:33;28.10;90.00
65462;DHT22;53236;43.666;18.444;2023-08-20T12:08:01;28.00;91.40
65462;DHT22;53236;43.666;18.444;2023-08-20T12:10:30;28.30;93.30
65462;DHT22;53236;43.666;18.444;2023-08-20T12:12:57;28.40;89.60
65462;DHT22;53236;43.666;18.444;2023-08-20T12:15:24;28.60;85.40
65462;DHT22;53236;43.666;18.444;2023-08-20T12:18:01;28.60;84.10
65462;DHT22;53236;43.666;18.444;2023-08-20T12:20:31;28.60;82.10
65462;DHT22;53236;43.666;18.444;2023-08-20T12:22:59;28.70;80.70
65462;DHT22;53236;43.666;18.444;2023-08-20T12:25:26;28.70;83.30
65462;DHT22;53236;43.666;18.444;2023-08-20T12:27:52;28.70;80.20
65462;DHT22;53236;43.666;18.444;2023-08-20T12:30:18;28.60;79.40
65462;DHT22;53236;43.666;18.444;2023-08-20T12:32:43;28.90;80.00
65462;DHT22;53236;43.666;18.444;2023-08-20T12:35:09;29.40;79.90
65462;DHT22;53236;43.666;18.444;2023-08-20T12:37:35;29.90;74.20
65462;DHT22;53236;43.666;18.444;2023-08-20T12:40:01;29.80;72.80
65462;DHT22;53236;43.666;18.444;2023-08-20T12:42:29;29.20;75.50
65462;DHT22;53236;43.666;18.444;2023-08-20T12:44:55;29.20;75.10
65462;DHT22;53236;43.666;18.444;2023-08-20T12:47:20;29.20;71.40
65462;DHT22;53236;43.666;18.444;2023-08-20T12:49:46;29.10;73.80
65462;DHT22;53236;43.666;18.444;2023-08-20T12:52:12;29.20;73.90
65462;DHT22;53236;43.666;18.444;2023-08-20T12:54:38;29.30;74.20
65462;DHT22;53236;43.666;18.444;2023-08-20T12:57:03;29.30;73.90
65462;DHT22;53236;43.666;18.444;2023-08-20T12:59:29;29.50;76.00
65462;DHT22;53236;43.666;18.444;2023-08-20T13:01:55;29.40;74.10
65462;DHT22;53236;43.666;18.444;2023-08-20T13:04:21;29.40;73.60
65462;DHT22;53236;43.666;18.444;2023-08-20T13:06:47;29.30;75.90
65462;DHT22;53236;43.666;18.444;2023-08-20T13:09:13;28.70;67.70
65462;DHT22;53236;43.666;18.444;2023-08-20T13:11:42;28.70;68.90
65462;DHT22;53236;43.666;18.444;2023-08-20T13:14:10;28.70;69.90
65462;DHT22;53236;43.666;18.444;2023-08-20T13:16:36;28.60;66.50
65462;DHT22;53236;43.666;18.444;2023-08-20T13:19:02;28.70;66.30
65462;DHT22;53236;43.666;18.444;2023-08-20T13:21:28;28.60;62.70
65462;DHT22;53236;43.666;18.444;2023-08-20T13:23:53;28.30;62.60
65462;DHT22;53236;43.666;18.444;2023-08-20T13:26:19;28.20;63.40
65462;DHT22;53236;43.666;18.444;2023-08-20T13:28:48;28.20;65.40
65462;DHT22;53236;43.666;18.444;2023-08-20T13:31:13;28.20;66.50
65462;DHT22;53236;43.666;18.444;2023-08-20T13:33:40;28.20;65.00
65462;DHT22;53236;43.666;18.444;2023-08-20T13:36:06;28.20;65.50
65462;DHT22;53236;43.666;18.444;2023-08-20T13:38:32;27.90;63.60
65462;DHT22;53236;43.666;18.444;2023-08-20T13:40:58;28.00;66.10
65462;DHT22;53236;43.666;18.444;2023-08-20T13:43:24;28.10;65.20
65462;DHT22;53236;43.666;18.444;2023-08-20T13:45:50;28.10;66.80
65462;DHT22;53236;43.666;18.444;2023-08-20T13:48:15;28.10;65.00
65462;DHT22;53236;43.666;18.444;2023-08-20T13:50:41;28.00;62.20
65462;DHT22;53236;43.666;18.444;2023-08-20T13:53:07;28.10;64.10
65462;DHT22;53236;43.666;18.444;2023-08-20T13:55:34;28.00;65.50
65462;DHT22;53236;43.666;18.444;2023-08-20T13:57:59;27.70;66.00
65462;DHT22;53236;43.666;18.444;2023-08-20T14:00:25;27.60;66.60
65462;DHT22;53236;43.666;18.444;2023-08-20T14:02:51;27.40;65.20
65462;DHT22;53236;43.666;18.444;2023-08-20T14:05:17;27.50;66.10
65462;DHT22;53236;43.666;18.444;2023-08-20T14:07:45;27.70;63.60
65462;DHT22;53236;43.666;18.444;2023-08-20T14:10:10;27.90;64.70
65462;DHT22;53236;43.666;18.444;2023-08-20T14:12:36;28.00;63.20
65462;DHT22;53236;43.666;18.444;2023-08-20T14:15:02;28.30;66.70
65462;DHT22;53236;43.666;18.444;2023-08-20T14:17:28;28.30;67.90
65462;DHT22;53236;43.666;18.444;2023-08-20T14:19:54;28.20;65.80
65462;DHT22;53236;43.666;18.444;2023-08-20T14:22:20;28.20;65.60
65462;DHT22;53236;43.666;18.444;2023-08-20T14:24:46;28.10;66.90
65462;DHT22;53236;43.666;18.444;2023-08-20T14:27:12;28.00;66.50
65462;DHT22;53236;43.666;18.444;2023-08-20T14:29:38;28.00;66.10
65462;DHT22;53236;43.666;18.444;2023-08-20T14:32:04;27.90;67.20
65462;DHT22;53236;43.666;18.444;2023-08-20T14:34:30;27.80;67.30
65462;DHT22;53236;43.666;18.444;2023-08-20T14:36:56;27.70;68.30
65462;DHT22;53236;43.666;18.444;2023-08-20T14:39:21;27.60;66.40
65462;DHT22;53236;43.666;18.444;2023-08-20T14:41:47;27.40;68.40
65462;DHT22;53236;43.666;18.444;2023-08-20T14:44:13;27.40;68.70
65462;DHT22;53236;43.666;18.444;2023-08-20T14:46:39;27.60;67.90
65462;DHT22;53236;43.666;18.444;2023-08-20T14:49:04;27.70;68.10
65462;DHT22;53236;43.666;18.444;2023-08-20T14:51:30;27.60;69.40
65462;DHT22;53236;43.666;18.444;2023-08-20T14:53:56;27.50;69.30
65462;DHT22;53236;43.666;18.444;2023-08-20T14:56:21;27.30;69.70
65462;DHT22;53236;43.666;18.444;2023-08-20T14:58:47;27.20;70.00
65462;DHT22;53236;43.666;18.444;2023-08-20T15:01:13;27.20;71.00
65462;DHT22;53236;43.666;18.444;2023-08-20T15:03:39;27.00;70.20
65462;DHT22;53236;43.666;18.444;2023-08-20T15:06:04;26.90;71.70
65462;DHT22;53236;43.666;18.444;2023-08-20T15:08:30;26.80;71.70
65462;DHT22;53236;43.666;18.444;2023-08-20T15:11:00;26.80;71.60
65462;DHT22;53236;43.666;18.444;2023-08-20T15:13:31;26.80;71.50
65462;DHT22;53236;43.666;18.444;2023-08-20T15:15:57;26.80;73.90
65462;DHT22;53236;43.666;18.444;2023-08-20T15:18:23;26.80;72.40
65462;DHT22;53236;43.666;18.444;2023-08-20T15:20:59;26.70;72.60
65462;DHT22;53236;43.666;18.444;2023-08-20T15:23:27;26.70;72.40
65462;DHT22;53236;43.666;18.444;2023-08-20T15:25:55;26.60;73.70